Time;durP1;ratioP1;P1;durP2;ratioP2;P2;SDS_P1;SDS_P2;PMS_P1;PMS_P2;Temp;Humidity;BMP_temperature;BMP_pressure;BME280_temperature;BME280_humidity;BME280_pressure;Samples;Min_cycle;Max_cycle;Signal;HPM_P1;HPM_P2
2021/08/13 00:00:28;;;;;;;21.13;16.92;;;;;;;16.10;92.41;101753.69;2108029;28;20020;-64
2021/08/13 00:01:28;;;;;;;19.67;16.57;;;;;;;16.11;92.58;101746.66;2108004;28;20098;-64
2021/08/13 00:02:28;;;;;;;17.57;15.80;;;;;;;16.11;92.70;101741.38;2108023;28;20027;-64
2021/08/13 00:03:28;;;;;;;16.30;14.60;;;;;;;16.11;92.82;101747.47;2108032;28;20102;-64
2021/08/13 00:04:29;;;;;;;18.37;16.07;;;;;;;16.11;92.92;101747.47;2108087;28;20031;-65
2021/08/13 00:05:29;;;;;;;22.30;16.43;;;;;;;16.09;92.70;101750.19;2108032;28;20027;-64
2021/08/13 00:06:30;;;;;;;17.50;15.07;;;;;;;16.07;92.48;101745.94;2107963;28;20724;-64
2021/08/13 00:07:30;;;;;;;;;;;;;;;16.06;92.53;101745.09;2108437;28;20023;-63
2021/08/13 00:08:31;;;;;;;16.70;14.98;;;;;;;16.04;92.85;101746.94;2108007;28;19911;-63
2021/08/13 00:09:31;;;;;;;19.20;15.13;;;;;;;16.03;92.35;101750.53;2107987;28;20030;-64
2021/08/13 00:10:32;;;;;;;18.60;16.67;;;;;;;16.01;92.58;101749.75;2107776;28;20040;-64
2021/08/13 00:11:35;;;;;;;19.65;16.23;;;;;;;15.98;92.85;101749.91;2107910;28;20418;-64
2021/08/13 00:12:35;;;;;;;21.08;18.23;;;;;;;15.97;92.60;101750.81;2107183;28;20024;-64
2021/08/13 00:13:35;;;;;;;19.65;17.52;;;;;;;15.96;92.95;101760.53;2107372;28;20551;-64
2021/08/13 00:14:36;;;;;;;20.43;17.60;;;;;;;15.94;92.69;101761.47;2107937;28;20035;-64
2021/08/13 00:15:36;;;;;;;19.33;17.33;;;;;;;15.93;92.59;101760.63;2107941;28;20465;-63
2021/08/13 00:16:36;;;;;;;21.23;16.83;;;;;;;15.92;92.91;101758.94;2107870;28;20119;-64
2021/08/13 00:17:37;;;;;;;19.67;16.60;;;;;;;15.89;92.68;101759.09;2107974;28;20036;-64
2021/08/13 00:18:37;;;;;;;18.43;16.50;;;;;;;15.90;92.63;101757.28;2107824;28;20081;-64
2021/08/13 00:19:37;;;;;;;17.37;15.13;;;;;;;15.90;92.50;101758.16;2107937;28;20020;-64
2021/08/13 00:20:38;;;;;;;17.23;15.27;;;;;;;15.92;92.89;101753.69;2107872;28;20523;-64
2021/08/13 00:21:38;;;;;;;17.27;15.48;;;;;;;15.93;92.76;101758.00;2107907;28;20050;-65
2021/08/13 00:22:38;;;;;;;22.33;17.20;;;;;;;15.93;92.89;101758.00;2107904;28;20464;-64
2021/08/13 00:23:38;;;;;;;18.13;16.23;;;;;;;15.94;92.96;101761.47;2107890;28;20052;-64
2021/08/13 00:24:39;;;;;;;18.43;16.53;;;;;;;15.94;93.17;101767.59;2107869;28;20024;-64
2021/08/13 00:25:39;;;;;;;17.67;14.83;;;;;;;15.94;92.82;101767.59;2107837;28;20027;-63
2021/08/13 00:26:39;;;;;;;22.23;15.95;;;;;;;15.93;92.88;101765.91;2107191;28;20051;-64
2021/08/13 00:27:40;;;;;;;19.27;15.77;;;;;;;15.93;93.19;101771.16;2107250;28;20371;-64
2021/08/13 00:28:40;;;;;;;19.02;16.38;;;;;;;15.96;92.88;101775.44;2107845;28;20543;-63
2021/08/13 00:29:40;;;;;;;19.07;17.03;;;;;;;15.98;92.96;101770.13;2107845;28;20024;-64
2021/08/13 00:30:41;;;;;;;19.47;16.00;;;;;;;16.01;93.01;101772.59;2107743;28;20104;-64
2021/08/13 00:31:41;;;;;;;21.10;15.97;;;;;;;16.04;93.04;101772.41;2107771;28;20036;-64
2021/08/13 00:32:41;;;;;;;16.37;14.67;;;;;;;16.06;93.34;101767.94;2107746;28;20035;-64
2021/08/13 00:33:41;;;;;;;17.80;16.03;;;;;;;16.09;93.18;101775.69;2107820;28;20067;-64
2021/08/13 00:34:42;;;;;;;18.60;15.77;;;;;;;16.11;93.01;101779.06;2107773;28;20099;-64
2021/08/13 00:35:42;;;;;;;19.03;16.27;;;;;;;16.14;93.21;101771.03;2107809;28;20455;-64
2021/08/13 00:36:42;;;;;;;19.33;15.43;;;;;;;16.15;93.17;101772.72;2107832;28;20285;-64
2021/08/13 00:37:43;;;;;;;20.07;16.37;;;;;;;16.19;93.18;101778.69;2107210;28;20038;-64
2021/08/13 00:38:43;;;;;;;18.20;15.53;;;;;;;16.22;93.11;101773.28;2107168;28;20473;-64
2021/08/13 00:39:43;;;;;;;19.83;14.77;;;;;;;16.24;92.67;101767.91;2107634;28;20028;-64
2021/08/13 00:40:43;;;;;;;16.77;14.33;;;;;;;16.28;92.85;101774.75;2107105;28;20031;-64
2021/08/13 00:41:44;;;;;;;20.40;15.43;;;;;;;16.33;93.16;101778.81;2107143;28;20023;-65
2021/08/13 00:42:44;;;;;;;20.20;16.37;;;;;;;16.35;92.82;101766.44;2107766;28;20032;-64
2021/08/13 00:43:44;;;;;;;18.10;15.17;;;;;;;16.38;92.79;101770.69;2107792;28;20116;-65
2021/08/13 00:44:45;;;;;;;20.33;16.02;;;;;;;16.40;92.86;101776.75;2107744;28;20099;-65
2021/08/13 00:45:45;;;;;;;17.93;14.93;;;;;;;16.43;92.77;101779.19;2107648;28;20051;-64
2021/08/13 00:46:45;;;;;;;16.00;14.10;;;;;;;16.42;92.63;101780.13;2107659;28;20032;-64
2021/08/13 00:47:47;;;;;;;17.83;15.10;;;;;;;16.43;92.35;101779.19;2107521;28;20059;-63
2021/08/13 00:48:47;;;;;;;17.00;14.73;;;;;;;16.44;92.48;101778.28;2107631;28;20111;-64
2021/08/13 00:49:48;;;;;;;16.53;14.80;;;;;;;16.45;92.31;101779.97;2107603;28;20044;-64
2021/08/13 00:50:48;;;;;;;17.63;15.13;;;;;;;16.46;92.35;101784.31;2107636;28;20102;-64
2021/08/13 00:51:48;;;;;;;15.55;13.90;;;;;;;16.48;92.31;101782.44;2107576;28;20035;-65
2021/08/13 00:52:49;;;;;;;18.98;14.52;;;;;;;16.48;92.11;101779.81;2107673;28;20034;-64
2021/08/13 00:53:50;;;;;;;15.13;13.52;;;;;;;16.51;92.40;101775.31;2107571;28;20027;-65
2021/08/13 00:54:50;;;;;;;18.03;14.20;;;;;;;16.52;92.58;101777.03;2106842;28;20028;-63
2021/08/13 00:55:51;;;;;;;17.70;14.68;;;;;;;16.52;92.36;101777.03;2098554;28;20024;-63
2021/08/13 00:56:51;;;;;;;17.85;14.77;;;;;;;16.52;91.87;101782.28;2107046;28;20102;-64
2021/08/13 00:57:53;;;;;;;19.77;14.93;;;;;;;16.52;92.25;101782.28;2107620;28;20035;-63
2021/08/13 00:58:53;;;;;;;;;;;;;;;16.52;92.30;101782.28;2108050;28;20031;-63
2021/08/13 00:59:54;;;;;;;15.07;13.40;;;;;;;16.52;92.21;101782.28;2107692;28;19908;-64
2021/08/13 01:00:56;;;;;;;15.85;12.88;;;;;;;16.53;91.76;101784.00;2107518;28;20020;-65
2021/08/13 01:01:56;;;;;;;20.38;13.93;;;;;;;16.52;91.80;101785.75;2107461;28;20031;-64
2021/08/13 01:02:57;;;;;;;16.30;14.43;;;;;;;16.53;92.20;101784.00;2106821;28;20034;-64
2021/08/13 01:03:57;;;;;;;17.13;14.00;;;;;;;16.53;92.02;101784.81;2106955;28;20465;-64
2021/08/13 01:04:57;;;;;;;16.83;15.07;;;;;;;16.54;92.25;101793.59;2106872;28;20028;-64
2021/08/13 01:05:58;;;;;;;15.13;13.63;;;;;;;16.54;91.95;101791.81;2107329;28;20099;-63
2021/08/13 01:06:58;;;;;;;14.07;12.57;;;;;;;16.55;92.03;101793.50;2107420;28;20273;-63
2021/08/13 01:07:59;;;;;;;15.73;14.10;;;;;;;16.57;92.41;101793.44;2107563;28;20026;-64
2021/08/13 01:08:59;;;;;;;16.53;13.47;;;;;;;16.60;91.77;101801.19;2107454;28;20110;-64
2021/08/13 01:09:59;;;;;;;16.30;14.45;;;;;;;16.63;91.85;101803.63;2107365;28;20028;-64
2021/08/13 01:11:04;;;;;;;15.97;12.93;;;;;;;16.65;92.08;101793.88;2107462;28;20031;-64
2021/08/13 01:12:15;;;;;;;17.02;13.95;;;;;;;16.66;91.57;101806.09;2107378;28;20028;-63
2021/08/13 01:13:26;;;;;;;15.68;13.20;;;;;;;16.66;92.04;101800.84;2107522;28;20077;-63
2021/08/13 01:14:39;;;;;;;19.33;15.10;;;;;;;16.68;91.75;101809.53;2107500;28;20103;-65
2021/08/13 01:15:46;;;;;;;19.17;15.07;;;;;;;16.69;91.82;101805.09;2107524;28;20111;-64
2021/08/13 01:16:49;;;;;;;19.17;14.10;;;;;;;16.70;91.80;101807.66;2107387;28;20031;-64
2021/08/13 01:18:05;;;;;;;20.42;15.80;;;;;;;16.71;91.49;101793.56;2107418;28;20059;-63
2021/08/13 01:19:23;;;;;;;23.45;16.80;;;;;;;16.72;91.63;101787.34;2107345;28;20503;-64
2021/08/13 01:20:48;;;;;;;19.70;16.08;;;;;;;16.73;91.66;101790.81;2107464;28;20020;-63
2021/08/13 01:21:55;;;;;;;20.08;17.17;;;;;;;16.72;91.82;101787.34;2107352;28;20431;-63
2021/08/13 01:23:05;;;;;;;18.90;16.90;;;;;;;16.70;92.14;101794.47;2107455;28;20457;-65
2021/08/13 01:24:15;;;;;;;22.90;18.40;;;;;;;16.68;91.74;101793.72;2107341;28;20408;-64
2021/08/13 01:25:19;;;;;;;20.25;18.08;;;;;;;16.67;91.76;101797.28;2107409;28;20451;-64
2021/08/13 01:26:21;;;;;;;25.45;17.65;;;;;;;16.67;92.13;101797.28;2107403;28;20103;-63
2021/08/13 01:27:28;;;;;;;23.75;17.13;;;;;;;16.66;91.99;101789.47;2107264;28;20015;-64
2021/08/13 01:28:34;;;;;;;19.73;17.15;;;;;;;16.66;92.03;101800.00;2107380;28;20020;-63
2021/08/13 01:29:56;;;;;;;20.45;17.27;;;;;;;16.66;92.23;101800.84;2107320;28;20028;-64
2021/08/13 01:30:59;;;;;;;22.65;18.75;;;;;;;16.65;91.70;101796.50;2107329;28;20028;-64
2021/08/13 01:32:12;;;;;;;24.38;19.13;;;;;;;16.62;91.70;101804.56;2107096;28;20054;-64
2021/08/13 01:33:13;;;;;;;21.40;19.02;;;;;;;16.61;92.21;101805.50;2107307;28;20042;-64
2021/08/13 01:34:15;;;;;;;25.42;18.33;;;;;;;16.59;92.03;101810.00;2107328;28;20024;-63
2021/08/13 01:35:20;;;;;;;21.42;18.20;;;;;;;16.58;92.13;101803.03;2107380;28;20431;-64
2021/08/13 01:36:22;;;;;;;25.10;19.38;;;;;;;16.59;91.89;101810.00;2107288;28;20035;-63
2021/08/13 01:37:23;;;;;;;;;;;;;;;16.62;92.35;101815.09;2107706;28;20023;-64
2021/08/13 01:38:26;;;;;;;24.88;18.75;;;;;;;16.60;92.39;101817.00;2107247;28;19908;-64
2021/08/13 01:39:30;;;;;;;29.20;21.85;;;;;;;16.63;92.21;101816.81;2106500;28;20114;-63
2021/08/13 01:40:32;;;;;;;24.17;20.23;;;;;;;16.65;92.22;101814.97;2106688;28;20110;-63
2021/08/13 01:41:34;;;;;;;26.65;19.60;;;;;;;16.67;92.29;101813.09;2107227;28;20024;-64
2021/08/13 01:42:36;;;;;;;22.27;19.90;;;;;;;16.67;92.01;101810.47;2107143;28;20016;-64
2021/08/13 01:43:37;;;;;;;;;;;;;;;16.71;92.31;101806.72;2107560;28;20103;-64
2021/08/13 01:44:39;;;;;;;25.77;21.87;;;;;;;16.74;92.02;101801.28;2106580;28;20011;-64
2021/08/13 01:45:40;;;;;;;25.63;20.95;;;;;;;16.78;92.06;101811.66;2106705;28;20285;-63
2021/08/13 01:46:42;;;;;;;28.80;22.58;;;;;;;16.77;91.89;101805.56;2106493;28;20043;-63
2021/08/13 01:47:43;;;;;;;27.05;22.25;;;;;;;16.77;92.28;101809.97;2106598;28;20062;-63
2021/08/13 01:48:45;;;;;;;26.73;21.80;;;;;;;16.76;92.03;101805.63;2107194;28;20032;-64
2021/08/13 01:49:45;;;;;;;29.13;22.67;;;;;;;16.76;92.13;101805.63;2106567;28;20024;-64
2021/08/13 01:50:47;;;;;;;28.77;22.97;;;;;;;16.75;92.22;101807.41;2106617;28;20528;-63
2021/08/13 01:51:49;;;;;;;30.75;24.10;;;;;;;16.76;92.13;101805.63;2106494;28;20027;-64
2021/08/13 01:52:50;;;;;;;28.88;21.90;;;;;;;16.76;92.07;101805.63;2106544;28;20024;-64
2021/08/13 01:53:51;;;;;;;30.00;22.08;;;;;;;16.77;92.10;101807.34;2107071;28;20035;-63
2021/08/13 01:54:53;;;;;;;25.05;22.45;;;;;;;16.78;92.04;101806.38;2107168;28;20535;-63
2021/08/13 01:55:55;;;;;;;27.52;22.23;;;;;;;16.81;91.66;101811.50;2107028;28;20024;-65
2021/08/13 01:56:56;;;;;;;30.20;23.45;;;;;;;16.82;91.92;101807.94;2106495;28;20039;-64
2021/08/13 01:57:57;;;;;;;29.48;23.83;;;;;;;16.82;91.61;101800.03;2106572;28;20063;-63
2021/08/13 01:58:59;;;;;;;;;;;;;;;16.84;91.71;101806.06;2107547;28;20024;-64
2021/08/13 02:00:00;;;;;;;29.15;21.00;;;;;;;16.85;91.58;101808.63;2106462;28;19978;-64
2021/08/13 02:01:01;;;;;;;;;;;;;;;16.86;91.72;101799.78;2106940;28;20032;-64
2021/08/13 02:02:01;;;;;;;26.63;21.33;;;;;;;16.87;91.63;101792.72;2107068;28;19908;-64
2021/08/13 02:03:02;;;;;;;26.83;21.08;;;;;;;16.88;91.61;101798.84;2107235;28;20160;-64
2021/08/13 02:04:04;;;;;;;29.83;24.00;;;;;;;16.87;91.87;101792.72;2106966;28;20032;-64
2021/08/13 02:05:05;;;;;;;28.42;23.52;;;;;;;16.87;91.69;101795.38;2107030;28;20020;-64
2021/08/13 02:06:06;;;;;;;26.50;23.42;;;;;;;16.85;91.40;101798.09;2107108;28;20028;-64
2021/08/13 02:07:12;;;;;;;25.17;21.23;;;;;;;16.83;91.39;101796.44;2107064;28;20024;-63
2021/08/13 02:08:13;;;;;;;28.10;21.83;;;;;;;16.79;91.57;101792.28;2106263;28;20162;-64
2021/08/13 02:09:14;;;;;;;32.70;23.52;;;;;;;16.77;91.40;101802.91;2106446;28;20020;-64
2021/08/13 02:10:16;;;;;;;25.75;23.02;;;;;;;16.74;91.46;101787.25;2106025;28;20044;-65
2021/08/13 02:11:17;;;;;;;26.88;20.92;;;;;;;16.71;91.42;101798.81;2106387;28;20473;-64
2021/08/13 02:12:18;;;;;;;23.40;20.33;;;;;;;16.68;91.35;101793.72;2107006;28;20362;-63
2021/08/13 02:13:18;;;;;;;24.60;19.58;;;;;;;16.65;91.78;101791.25;2107066;28;20027;-64
2021/08/13 02:14:19;;;;;;;26.67;21.50;;;;;;;16.64;92.01;101792.19;2106319;28;20081;-64
2021/08/13 02:15:19;;;;;;;25.17;21.15;;;;;;;16.59;91.62;101794.19;2106449;28;20375;-64
2021/08/13 02:16:26;;;;;;;23.25;20.95;;;;;;;16.54;92.09;101790.94;2106800;28;20102;-62
2021/08/13 02:17:29;;;;;;;24.63;21.98;;;;;;;16.52;91.97;101787.56;2106867;28;20496;-64
2021/08/13 02:18:30;;;;;;;24.15;21.13;;;;;;;16.47;92.00;101791.28;2106303;28;20465;-64
2021/08/13 02:19:37;;;;;;;26.92;21.60;;;;;;;16.45;92.41;101789.66;2106362;28;20528;-63
2021/08/13 02:20:41;;;;;;;28.17;20.35;;;;;;;16.41;92.02;101785.47;2106995;28;20032;-64
2021/08/13 02:21:46;;;;;;;25.73;20.92;;;;;;;16.38;92.38;101786.50;2106947;28;20023;-64
2021/08/13 02:22:46;;;;;;;24.00;21.15;;;;;;;16.34;92.14;101791.06;2106954;28;20447;-63
2021/08/13 02:23:47;;;;;;;25.43;21.80;;;;;;;16.31;92.20;101788.59;2106905;28;20027;-65
2021/08/13 02:24:47;;;;;;;28.33;23.25;;;;;;;16.29;92.65;101793.06;2106935;28;20526;-64
2021/08/13 02:25:48;;;;;;;26.67;22.20;;;;;;;16.28;92.62;101793.19;2106947;28;20020;-64
2021/08/13 02:26:49;;;;;;;27.17;22.08;;;;;;;16.25;92.28;101790.69;2106933;28;20055;-63
2021/08/13 02:27:51;;;;;;;24.65;21.98;;;;;;;16.24;92.77;101794.25;2106893;28;20031;-63
2021/08/13 02:28:51;;;;;;;27.48;21.48;;;;;;;16.20;92.84;101789.16;2106922;28;20032;-63
2021/08/13 02:29:53;;;;;;;26.37;20.70;;;;;;;16.19;92.77;101794.50;2106887;28;20028;-63
2021/08/13 02:30:53;;;;;;;30.55;23.73;;;;;;;16.19;92.90;101797.13;2106193;28;20476;-64
2021/08/13 02:31:54;;;;;;;30.30;22.80;;;;;;;16.18;92.97;101796.28;2106208;28;20024;-64
2021/08/13 02:32:54;;;;;;;27.83;22.60;;;;;;;16.19;93.07;101797.13;2107061;28;20103;-63
2021/08/13 02:33:54;;;;;;;26.90;24.00;;;;;;;16.20;92.76;101793.56;2106891;28;20038;-64
2021/08/13 02:34:55;;;;;;;34.92;23.73;;;;;;;16.19;93.19;101792.69;2106920;28;20069;-64
2021/08/13 02:36:06;;;;;;;26.60;22.92;;;;;;;16.20;92.95;101789.16;2106886;28;20449;-64
2021/08/13 02:37:36;;;;;;;32.70;23.67;;;;;;;16.21;93.11;101790.84;2106948;28;20024;-64
2021/08/13 02:38:46;;;;;;;31.45;23.85;;;;;;;16.22;93.27;101781.19;2101239;28;20393;-64
2021/08/13 02:40:00;;;;;;;30.38;24.25;;;;;;;16.26;93.55;101781.84;2106733;28;20024;-64
2021/08/13 02:41:03;;;;;;;30.40;25.17;;;;;;;16.26;93.09;101784.50;2106140;28;20027;-64
2021/08/13 02:42:05;;;;;;;31.90;24.75;;;;;;;16.27;93.29;101789.69;2106246;28;20368;-63
2021/08/13 02:43:18;;;;;;;29.63;23.38;;;;;;;16.27;93.65;101788.81;2106861;28;20052;-64
2021/08/13 02:44:20;;;;;;;25.92;22.90;;;;;;;16.26;93.36;101792.41;2106731;28;20389;-63
2021/08/13 02:45:22;;;;;;;30.75;25.10;;;;;;;16.26;93.51;101781.84;2106796;28;20051;-64
2021/08/13 02:46:26;;;;;;;32.10;25.65;;;;;;;16.27;93.28;101786.19;2106791;28;20078;-65
2021/08/13 02:47:29;;;;;;;29.20;24.23;;;;;;;16.28;93.36;101786.13;2106737;28;20061;-64
2021/08/13 02:48:33;;;;;;;29.40;24.73;;;;;;;16.28;93.46;101790.53;2106835;28;20067;-65
2021/08/13 02:49:41;;;;;;;29.48;23.80;;;;;;;16.27;93.11;101786.19;2106702;28;20028;-64
2021/08/13 02:50:43;;;;;;;33.28;26.38;;;;;;;16.27;93.22;101789.69;2106828;28;20433;-64
2021/08/13 02:51:44;;;;;;;30.20;26.13;;;;;;;16.27;93.22;101789.69;2106846;28;20096;-64
2021/08/13 02:52:53;;;;;;;30.30;25.77;;;;;;;16.27;93.06;101789.69;2106762;28;20032;-64
2021/08/13 02:53:54;;;;;;;36.30;25.13;;;;;;;16.28;93.09;101786.13;2106793;28;20024;-64
2021/08/13 02:55:01;;;;;;;33.92;25.15;;;;;;;16.28;93.39;101780.00;2106805;28;20028;-64
2021/08/13 02:56:04;;;;;;;31.83;24.75;;;;;;;16.27;93.08;101783.56;2106644;28;20024;-64
2021/08/13 02:57:05;;;;;;;34.92;26.25;;;;;;;16.28;93.24;101780.84;2106910;28;20024;-64
2021/08/13 02:58:09;;;;;;;29.58;25.30;;;;;;;16.27;93.03;101779.16;2106780;28;20028;-64
2021/08/13 02:59:14;;;;;;;34.65;26.40;;;;;;;16.27;92.98;101773.03;2106748;28;20055;-63
2021/08/13 03:00:15;;;;;;;34.53;26.02;;;;;;;16.27;93.16;101778.28;2106688;28;20393;-64
2021/08/13 03:01:20;;;;;;;33.72;26.02;;;;;;;16.26;93.43;101776.59;2106790;28;20362;-64
2021/08/13 03:02:21;;;;;;;31.95;26.15;;;;;;;16.26;93.29;101773.97;2106628;28;20012;-64
2021/08/13 03:03:23;;;;;;;36.95;27.08;;;;;;;16.26;93.41;101771.31;2106770;28;20051;-63
2021/08/13 03:04:27;;;;;;;34.33;26.08;;;;;;;16.24;93.24;101768.78;2106688;28;20107;-63
2021/08/13 03:05:30;;;;;;;31.63;26.55;;;;;;;16.23;93.48;101764.44;2106796;28;20449;-63
2021/08/13 03:06:33;;;;;;;33.15;26.67;;;;;;;16.22;93.19;101760.94;2106757;28;20174;-64
2021/08/13 03:07:34;;;;;;;36.42;26.88;;;;;;;16.21;93.27;101764.53;2106793;28;20027;-64
2021/08/13 03:08:35;;;;;;;31.80;27.17;;;;;;;16.17;93.17;101762.97;2106648;28;20106;-64
2021/08/13 03:09:37;;;;;;;34.28;28.23;;;;;;;16.15;93.51;101759.56;2106907;28;20023;-64
2021/08/13 03:10:38;;;;;;;30.60;25.48;;;;;;;16.12;93.11;101759.75;2106569;28;20131;-64
2021/08/13 03:11:41;;;;;;;33.55;26.77;;;;;;;16.09;93.32;101762.53;2106724;28;20488;-64
2021/08/13 03:12:41;;;;;;;32.47;25.48;;;;;;;16.06;93.33;101757.41;2106609;28;20035;-64
2021/08/13 03:13:43;;;;;;;33.15;26.73;;;;;;;16.02;93.34;101758.50;2106784;28;20020;-64
2021/08/13 03:14:45;;;;;;;30.88;26.77;;;;;;;16.02;93.46;101755.88;2106693;28;20388;-63
2021/08/13 03:15:46;;;;;;;30.70;26.52;;;;;;;16.02;93.48;101755.88;2106636;28;20073;-63
2021/08/13 03:16:48;;;;;;;;;;;;;;;16.00;93.47;101755.06;2107163;28;20031;-64
2021/08/13 03:17:49;;;;;;;32.15;24.42;;;;;;;16.01;93.58;101762.06;2106547;28;19912;-63
2021/08/13 03:18:50;;;;;;;32.92;24.77;;;;;;;16.01;93.94;101762.06;2106679;28;20374;-64
2021/08/13 03:19:50;;;;;;;32.55;26.00;;;;;;;15.99;93.75;101748.13;2106015;28;20436;-64
2021/08/13 03:20:51;;;;;;;32.55;26.27;;;;;;;16.00;93.76;101757.72;2106045;28;20024;-63
2021/08/13 03:21:52;;;;;;;30.65;25.25;;;;;;;15.99;93.91;101763.91;2106716;28;20020;-63
2021/08/13 03:22:53;;;;;;;37.63;26.95;;;;;;;15.98;93.63;101762.22;2106699;28;20024;-64
2021/08/13 03:23:55;;;;;;;33.90;27.33;;;;;;;15.99;93.93;101758.66;2106599;28;20055;-64
2021/08/13 03:24:56;;;;;;;33.85;26.52;;;;;;;15.99;93.76;101756.00;2106630;28;20032;-64
2021/08/13 03:25:57;;;;;;;31.73;26.08;;;;;;;15.99;94.01;101753.38;2105976;28;20028;-64
2021/08/13 03:26:57;;;;;;;35.53;27.15;;;;;;;15.96;93.81;101755.25;2106121;28;20058;-63
2021/08/13 03:27:58;;;;;;;35.47;27.23;;;;;;;15.95;93.65;101758.78;2106580;28;20115;-64
2021/08/13 03:28:58;;;;;;;32.60;26.45;;;;;;;15.95;94.09;101763.22;2108023;28;20024;-64
2021/08/13 03:29:58;;;;;;;35.30;27.27;;;;;;;15.94;93.99;101766.72;2108281;28;20016;-64
2021/08/13 03:30:58;;;;;;;28.80;20.87;;;;;;;15.93;94.20;101757.16;2108330;28;20032;-61
2021/08/13 03:32:03;;;;;;;36.47;28.17;;;;;;;15.97;93.90;101766.63;2108236;28;20019;-63
2021/08/13 03:33:04;;;;;;;33.97;26.40;;;;;;;15.98;93.70;101767.47;2108372;28;20024;-63
2021/08/13 03:34:07;;;;;;;35.30;27.55;;;;;;;15.96;93.81;101760.53;2108349;28;20068;-64
2021/08/13 03:35:08;;;;;;;36.80;27.85;;;;;;;15.95;94.17;101758.78;2108228;28;20024;-64
2021/08/13 03:36:10;;;;;;;32.97;26.55;;;;;;;15.94;94.13;101756.22;2108299;28;20081;-64
2021/08/13 03:37:10;;;;;;;38.30;28.73;;;;;;;15.90;93.92;101750.25;2108332;28;20534;-63
2021/08/13 03:38:11;;;;;;;33.23;27.27;;;;;;;15.90;93.75;101755.53;2107478;28;20031;-62
2021/08/13 03:39:12;;;;;;;36.20;26.75;;;;;;;15.89;93.89;101759.09;2107600;28;20050;-64
2021/08/13 03:40:12;;;;;;;;;;;;;;;15.88;94.03;101754.75;2108629;28;20020;-63
2021/08/13 03:41:17;;;;;;;38.30;25.48;;;;;;;15.89;93.78;101759.09;2108317;28;19931;-64
2021/08/13 03:42:17;;;;;;;36.42;25.98;;;;;;;15.89;93.69;101758.22;2108186;28;20051;-62
2021/08/13 03:43:17;;;;;;;40.87;28.37;;;;;;;15.91;94.11;101762.47;2108224;28;20020;-64
2021/08/13 03:44:18;;;;;;;37.00;29.27;;;;;;;15.90;94.34;101766.06;2108136;28;20085;-64
2021/08/13 03:45:18;;;;;;;32.87;26.07;;;;;;;15.89;93.98;101756.47;2108273;28;20825;-64
2021/08/13 03:46:18;;;;;;;33.93;26.07;;;;;;;15.88;94.27;101757.38;2108197;28;20020;-64
2021/08/13 03:47:19;;;;;;;36.07;29.10;;;;;;;15.86;93.99;101759.25;2108121;28;20550;-64
2021/08/13 03:48:19;;;;;;;35.17;26.13;;;;;;;15.85;94.07;101768.06;2107466;28;20577;-64
2021/08/13 03:49:19;;;;;;;41.00;27.37;;;;;;;15.83;94.08;101765.50;2107600;28;20026;-64
2021/08/13 03:50:20;;;;;;;35.63;26.10;;;;;;;15.80;94.08;101762.16;2107474;28;20023;-63
2021/08/13 03:51:20;;;;;;;34.70;26.50;;;;;;;15.78;93.80;101756.16;2107609;28;20020;-64
2021/08/13 03:52:20;;;;;;;31.80;26.07;;;;;;;15.77;94.13;101757.91;2107387;28;20062;-63
2021/08/13 03:53:21;;;;;;;35.53;26.40;;;;;;;15.75;93.96;101761.56;2107613;28;20051;-63
2021/08/13 03:54:21;;;;;;;31.77;26.90;;;;;;;15.73;93.73;101759.00;2108127;28;20354;-63
2021/08/13 03:55:21;;;;;;;36.17;27.23;;;;;;;15.74;94.38;101765.13;2108092;28;20055;-64
2021/08/13 03:56:21;;;;;;;37.67;27.83;;;;;;;15.76;94.38;101760.63;2108129;28;20024;-64
2021/08/13 03:57:22;;;;;;;35.40;27.33;;;;;;;15.74;94.17;101757.22;2108044;28;20054;-65
2021/08/13 03:58:22;;;;;;;37.97;28.30;;;;;;;15.75;94.15;101761.56;2107377;28;20061;-64
2021/08/13 03:59:22;;;;;;;39.47;27.27;;;;;;;15.74;94.38;101765.13;2107519;28;20052;-63
2021/08/13 04:00:22;;;;;;;35.10;26.80;;;;;;;15.72;94.27;101767.81;2108093;28;20023;-64
2021/08/13 04:01:23;;;;;;;38.13;28.07;;;;;;;15.71;94.01;101761.69;2108090;28;20463;-64
2021/08/13 04:02:23;;;;;;;38.73;28.43;;;;;;;15.70;94.12;101767.91;2108028;28;20052;-63
2021/08/13 04:03:23;;;;;;;33.77;25.93;;;;;;;15.68;94.02;101772.38;2108045;28;20020;-63
2021/08/13 04:04:24;;;;;;;34.23;25.10;;;;;;;15.69;94.18;101768.84;2108094;28;20016;-64
2021/08/13 04:05:24;;;;;;;34.10;27.13;;;;;;;15.67;94.41;101770.69;2107985;28;20453;-64
2021/08/13 04:06:24;;;;;;;35.20;27.50;;;;;;;15.66;94.38;101768.97;2107410;28;20069;-63
2021/08/13 04:07:24;;;;;;;32.97;25.47;;;;;;;15.66;94.08;101774.25;2107501;28;20628;-63
2021/08/13 04:08:25;;;;;;;35.27;26.50;;;;;;;15.66;94.08;101768.13;2107991;28;20458;-63
2021/08/13 04:09:25;;;;;;;31.13;27.50;;;;;;;15.65;94.32;101769.91;2107933;28;20093;-64
2021/08/13 04:10:26;;;;;;;36.93;27.13;;;;;;;15.66;94.41;101765.50;2107717;28;20762;-64
2021/08/13 04:11:26;;;;;;;37.38;27.35;;;;;;;15.65;94.46;101775.19;2108041;28;20542;-64
2021/08/13 04:12:26;;;;;;;39.87;27.80;;;;;;;15.67;94.22;101775.94;2107968;28;20060;-63
2021/08/13 04:13:27;;;;;;;36.17;27.27;;;;;;;15.70;94.48;101778.44;2108016;28;20016;-64
2021/08/13 04:14:27;;;;;;;33.43;26.17;;;;;;;15.77;94.20;101781.59;2107999;28;20278;-64
2021/08/13 04:15:29;;;;;;;35.30;26.63;;;;;;;15.81;94.33;101782.31;2107992;28;20023;-63
2021/08/13 04:16:29;;;;;;;36.28;27.05;;;;;;;15.81;94.32;101784.94;2107846;28;20019;-64
2021/08/13 04:17:29;;;;;;;32.30;27.77;;;;;;;15.81;94.45;101779.69;2107871;28;20400;-63
2021/08/13 04:18:29;;;;;;;36.40;28.00;;;;;;;15.80;94.12;101780.59;2107930;28;20438;-64
2021/08/13 04:19:30;;;;;;;31.60;25.13;;;;;;;15.79;94.32;101778.91;2107964;28;20110;-63
2021/08/13 04:20:30;;;;;;;37.13;27.40;;;;;;;15.82;94.18;101778.75;2107877;28;20028;-64
2021/08/13 04:21:30;;;;;;;37.10;25.60;;;;;;;15.82;94.12;101782.25;2107930;28;20024;-63
2021/08/13 04:22:30;;;;;;;37.20;27.97;;;;;;;15.84;94.26;101779.50;2107880;28;20032;-62
2021/08/13 04:23:31;;;;;;;35.40;26.23;;;;;;;15.86;94.47;101777.66;2107922;28;20032;-63
2021/08/13 04:24:33;;;;;;;38.17;28.53;;;;;;;15.86;94.22;101779.44;2107239;28;20036;-63
2021/08/13 04:25:34;;;;;;;34.60;25.60;;;;;;;15.85;93.84;101778.59;2107224;28;20024;-62
2021/08/13 04:26:34;;;;;;;35.30;26.57;;;;;;;15.90;94.76;101778.34;2107210;28;20035;-62
2021/08/13 04:27:34;;;;;;;41.43;28.60;;;;;;;15.91;94.29;101780.91;2107378;28;20115;-63
2021/08/13 04:28:34;;;;;;;40.17;29.90;;;;;;;15.90;94.33;101779.22;2107854;28;20042;-63
2021/08/13 04:29:35;;;;;;;35.77;27.00;;;;;;;15.90;94.45;101780.97;2107913;28;20081;-62
2021/08/13 04:30:35;;;;;;;42.10;28.43;;;;;;;15.88;94.35;101778.41;2107779;28;20073;-62
2021/08/13 04:31:35;;;;;;;32.97;26.37;;;;;;;15.88;94.40;101778.41;2107061;28;20385;-63
2021/08/13 04:32:40;;;;;;;37.37;26.10;;;;;;;15.87;94.12;101775.91;2107055;28;20024;-62
2021/08/13 04:33:40;;;;;;;37.88;26.58;;;;;;;15.86;93.97;101777.66;2107756;28;20040;-65
2021/08/13 04:34:40;;;;;;;31.47;22.87;;;;;;;15.86;94.25;101779.44;2107839;28;20027;-62
2021/08/13 04:35:41;;;;;;;34.80;25.93;;;;;;;15.88;94.02;101778.41;2107791;28;20097;-63
2021/08/13 04:36:41;;;;;;;36.72;26.25;;;;;;;15.89;93.84;101774.88;2107785;28;20396;-63
2021/08/13 04:37:41;;;;;;;36.27;27.17;;;;;;;15.91;94.04;101783.53;2107720;28;20066;-63
2021/08/13 04:38:42;;;;;;;34.67;25.93;;;;;;;15.90;93.82;101779.22;2107773;28;20020;-63
2021/08/13 04:39:42;;;;;;;34.53;25.43;;;;;;;15.90;93.80;101771.31;2107605;28;20016;-62
2021/08/13 04:40:44;;;;;;;34.30;24.83;;;;;;;15.93;93.53;101771.16;2107809;28;20024;-64
2021/08/13 04:41:45;;;;;;;33.72;25.10;;;;;;;15.94;93.08;101772.88;2107796;28;20054;-63
2021/08/13 04:42:45;;;;;;;34.97;25.70;;;;;;;15.94;93.17;101778.13;2107792;28;20024;-63